createdAt,value
2023-05-25T00:01:05.132Z,99.12
2023-05-25T00:03:32.597Z,98.26
2023-05-25T00:06:25.036Z,99.03
2023-05-25T00:09:08.243Z,98.61
2023-05-25T00:11:52.370Z,98.73
2023-05-25T00:14:33.659Z,98.68
2023-05-25T00:17:04.318Z,98.93
2023-05-25T00:19:34.281Z,99.21
2023-05-25T00:22:04.234Z,99.23
2023-05-25T00:24:31.785Z,98.87
2023-05-25T00:26:59.427Z,98.99
2023-05-25T00:29:26.801Z,98.58
2023-05-25T00:31:54.184Z,99.29
2023-05-25T00:34:22.154Z,98.71
2023-05-25T00:36:49.167Z,98.73
2023-05-25T00:39:17.018Z,98.62
2023-05-25T00:41:48.294Z,98.31
2023-05-25T00:44:16.440Z,97.67
2023-05-25T00:46:50.977Z,97.60
2023-05-25T00:49:23.784Z,98.16
2023-05-25T00:51:52.301Z,97.92
2023-05-25T00:54:19.853Z,98.18
2023-05-25T00:56:53.712Z,98.26
2023-05-25T00:59:37.256Z,98.62
2023-05-25T01:02:07.271Z,97.88
2023-05-25T01:04:57.224Z,98.00
2023-05-25T01:07:45.649Z,98.80
2023-05-25T01:10:31.485Z,97.94
2023-05-25T01:13:19.295Z,98.69
2023-05-25T01:16:15.076Z,98.19
2023-05-25T01:18:42.263Z,98.51
2023-05-25T01:21:20.541Z,98.05
2023-05-25T01:23:53.224Z,98.31
2023-05-25T01:26:24.021Z,97.83
2023-05-25T01:28:53.526Z,97.11
2023-05-25T01:31:23.649Z,97.04
2023-05-25T01:33:52.154Z,98.21
2023-05-25T01:36:20.298Z,98.54
2023-05-25T01:38:47.586Z,98.49
2023-05-25T01:41:14.536Z,97.92
2023-05-25T01:43:41.963Z,98.50
2023-05-25T01:46:32.156Z,98.46
2023-05-25T01:49:25.420Z,99.10
2023-05-25T01:52:08.079Z,99.35
2023-05-25T01:54:47.508Z,98.91
2023-05-25T01:57:18.096Z,98.85
2023-05-25T01:59:46.786Z,98.80
2023-05-25T02:02:19.231Z,99.96
2023-05-25T02:04:47.602Z,99.93
2023-05-25T02:07:14.633Z,100.00
2023-05-25T02:09:41.618Z,99.30
2023-05-25T02:12:08.799Z,99.96
2023-05-25T02:14:35.760Z,99.30
2023-05-25T02:17:04.036Z,99.08
2023-05-25T02:19:31.033Z,98.67
2023-05-25T02:21:57.957Z,99.53
2023-05-25T02:24:25.695Z,99.76
2023-05-25T02:26:52.659Z,99.18
2023-05-25T02:29:19.623Z,99.29
2023-05-25T02:31:46.650Z,99.45
2023-05-25T02:34:14.130Z,99.55
2023-05-25T02:36:43.608Z,98.90
2023-05-25T02:39:11.519Z,99.64
2023-05-25T02:41:39.018Z,99.97
2023-05-25T02:44:06.805Z,100.00
2023-05-25T02:46:34.413Z,100.00
2023-05-25T02:49:01.451Z,100.00
2023-05-25T02:51:29.151Z,100.00
2023-05-25T02:53:56.191Z,100.00
2023-05-25T02:56:23.289Z,100.00
2023-05-25T02:58:51.063Z,100.00
2023-05-25T03:01:21.035Z,100.00
2023-05-25T03:03:52.919Z,100.00
2023-05-25T03:06:21.762Z,100.00
2023-05-25T03:08:49.192Z,100.00
2023-05-25T03:11:16.174Z,100.00
2023-05-25T03:13:43.083Z,100.00
2023-05-25T03:16:10.084Z,100.00
2023-05-25T03:18:37.014Z,100.00
2023-05-25T03:21:04.047Z,100.00
2023-05-25T03:23:30.962Z,100.00
2023-05-25T03:25:58.308Z,100.00
2023-05-25T03:28:25.150Z,100.00
2023-05-25T03:30:52.145Z,100.00
2023-05-25T03:33:19.020Z,100.00
2023-05-25T03:35:46.503Z,100.00
2023-05-25T03:38:13.541Z,100.00
2023-05-25T03:40:40.452Z,100.00
2023-05-25T03:43:07.378Z,100.00
2023-05-25T03:45:34.240Z,100.00
2023-05-25T03:48:01.433Z,99.85
2023-05-25T03:50:28.391Z,100.00
2023-05-25T03:52:55.297Z,99.76
2023-05-25T03:55:22.200Z,99.78
2023-05-25T03:57:49.190Z,100.00
2023-05-25T04:00:17.173Z,99.41
2023-05-25T04:02:44.247Z,98.96
2023-05-25T04:05:11.226Z,99.60
2023-05-25T04:07:38.203Z,99.00
2023-05-25T04:10:05.758Z,99.93
2023-05-25T04:12:33.256Z,99.26
2023-05-25T04:15:00.247Z,99.02
2023-05-25T04:17:27.242Z,98.74
2023-05-25T04:19:54.227Z,98.25
2023-05-25T04:22:21.223Z,98.68
2023-05-25T04:24:48.801Z,98.65
2023-05-25T04:27:15.905Z,98.66
2023-05-25T04:29:43.277Z,98.14
2023-05-25T04:32:10.814Z,99.16
2023-05-25T04:34:37.960Z,98.01
2023-05-25T04:37:05.823Z,97.94
2023-05-25T04:39:33.094Z,98.57
2023-05-25T04:42:04.739Z,98.69
2023-05-25T04:44:33.002Z,97.83
2023-05-25T04:47:01.573Z,98.00
2023-05-25T04:49:29.056Z,97.77
2023-05-25T04:51:56.223Z,98.83
2023-05-25T04:54:23.132Z,98.34
2023-05-25T04:56:50.204Z,98.33
2023-05-25T04:59:17.278Z,98.08
2023-05-25T05:01:44.828Z,98.17
2023-05-25T05:04:12.164Z,98.55
2023-05-25T05:06:39.744Z,98.91
2023-05-25T05:09:06.853Z,99.30
2023-05-25T05:11:33.847Z,99.57
2023-05-25T05:14:00.871Z,99.14
2023-05-25T05:16:31.862Z,99.26
2023-05-25T05:18:58.783Z,99.36
2023-05-25T05:21:25.948Z,98.79
2023-05-25T05:23:53.036Z,99.22
2023-05-25T05:26:21.473Z,98.61
2023-05-25T05:28:48.386Z,98.35
2023-05-25T05:31:17.667Z,98.93
2023-05-25T05:33:44.697Z,97.97
2023-05-25T05:36:11.706Z,98.73
2023-05-25T05:38:40.624Z,98.88
2023-05-25T05:41:13.675Z,98.07
2023-05-25T05:43:42.558Z,98.02
2023-05-25T05:46:13.194Z,98.68
2023-05-25T05:48:40.243Z,98.43
2023-05-25T05:51:07.190Z,97.63
2023-05-25T05:53:35.719Z,97.96
2023-05-25T05:56:04.114Z,98.00
2023-05-25T05:58:32.668Z,98.80
2023-05-25T06:01:00.418Z,99.16
2023-05-25T06:03:30.125Z,98.68
2023-05-25T06:05:57.127Z,97.88
2023-05-25T06:08:24.105Z,99.21
2023-05-25T06:10:51.239Z,98.48
2023-05-25T06:13:18.150Z,98.44
2023-05-25T06:15:45.446Z,98.30
2023-05-25T06:18:12.585Z,99.04
2023-05-25T06:20:39.691Z,98.52
2023-05-25T06:23:06.710Z,98.18
2023-05-25T06:29:20.303Z,97.43
2023-05-25T06:31:47.409Z,97.46
2023-05-25T06:34:14.544Z,97.14
2023-05-25T06:36:41.952Z,97.59
2023-05-25T06:39:09.018Z,96.96
2023-05-25T06:41:38.878Z,97.47
2023-05-25T06:44:05.870Z,96.29
2023-05-25T06:46:33.540Z,95.53
2023-05-25T06:49:01.517Z,95.38
2023-05-25T06:51:29.319Z,96.90
2023-05-25T06:53:57.187Z,95.93
2023-05-25T06:56:24.349Z,96.57
2023-05-25T06:58:51.494Z,95.81
2023-05-25T07:01:18.461Z,96.08
2023-05-25T07:03:45.447Z,95.73
2023-05-25T07:06:12.556Z,96.30
2023-05-25T07:08:39.536Z,95.67
2023-05-25T07:11:09.314Z,96.23
2023-05-25T07:13:36.696Z,96.26
2023-05-25T07:16:03.685Z,96.21
2023-05-25T07:18:30.761Z,98.12
2023-05-25T07:20:58.401Z,96.96
2023-05-25T07:23:25.372Z,97.52
2023-05-25T07:25:52.532Z,97.82
2023-05-25T07:28:19.490Z,98.41
2023-05-25T07:30:46.465Z,98.59
2023-05-25T07:33:13.446Z,97.15
2023-05-25T07:35:40.842Z,97.19
2023-05-25T07:38:07.853Z,98.20
2023-05-25T07:40:34.806Z,98.63
2023-05-25T07:43:02.186Z,98.30
2023-05-25T07:45:29.197Z,96.51
2023-05-25T07:47:56.265Z,97.45
2023-05-25T07:50:24.144Z,98.24
2023-05-25T07:52:51.443Z,98.27
2023-05-25T07:55:20.702Z,97.27
2023-05-25T07:57:47.667Z,96.34
2023-05-25T08:00:14.886Z,96.84
2023-05-25T08:02:42.205Z,97.24
2023-05-25T08:05:10.377Z,96.61
2023-05-25T08:07:39.565Z,97.47
2023-05-25T08:10:08.932Z,96.09
2023-05-25T08:12:47.790Z,96.78
2023-05-25T08:15:17.340Z,96.89
2023-05-25T08:17:44.609Z,96.52
2023-05-25T08:20:12.560Z,97.46
2023-05-25T08:22:39.605Z,96.89
2023-05-25T08:25:07.155Z,96.04
2023-05-25T08:27:36.068Z,94.95
2023-05-25T08:30:06.313Z,94.89
2023-05-25T08:32:33.555Z,94.88
2023-05-25T08:35:01.926Z,94.28
2023-05-25T08:37:29.588Z,94.16
2023-05-25T08:39:56.696Z,94.27
2023-05-25T08:42:24.193Z,95.01
2023-05-25T08:44:51.202Z,94.70
2023-05-25T08:47:22.896Z,94.93
2023-05-25T08:49:51.111Z,94.06
2023-05-25T08:52:23.335Z,94.46
2023-05-25T08:54:54.489Z,95.43
2023-05-25T08:57:29.867Z,95.40
2023-05-25T09:00:01.010Z,95.10
2023-05-25T09:02:54.781Z,93.77
2023-05-25T09:05:22.901Z,94.21
2023-05-25T09:07:51.749Z,94.07
2023-05-25T09:10:19.145Z,92.35
2023-05-25T09:12:46.951Z,92.14
2023-05-25T09:15:14.078Z,92.08
2023-05-25T09:17:41.719Z,92.20
2023-05-25T09:20:14.218Z,92.77
2023-05-25T09:22:42.436Z,92.51
2023-05-25T09:25:11.202Z,91.71
2023-05-25T09:27:39.230Z,91.93
2023-05-25T09:30:07.009Z,91.52
2023-05-25T09:32:34.366Z,91.17
2023-05-25T09:35:15.242Z,92.51
2023-05-25T09:37:43.913Z,92.42
2023-05-25T09:40:11.517Z,91.21
2023-05-25T09:42:39.051Z,92.00
2023-05-25T09:45:07.198Z,93.00
2023-05-25T09:47:37.750Z,92.82
2023-05-25T09:50:06.054Z,91.26
2023-05-25T09:52:33.020Z,90.39
2023-05-25T09:55:00.195Z,91.45
2023-05-25T09:57:27.659Z,91.21
2023-05-25T09:59:54.600Z,91.15
2023-05-25T10:02:21.559Z,92.68
2023-05-25T10:04:48.844Z,92.18
2023-05-25T10:07:16.469Z,91.58
2023-05-25T10:09:47.259Z,90.67
2023-05-25T10:12:19.568Z,91.36
2023-05-25T10:14:49.431Z,90.52
2023-05-25T10:17:21.753Z,91.30
2023-05-25T10:19:55.861Z,91.77
2023-05-25T10:22:34.750Z,90.75
2023-05-25T10:25:08.004Z,91.66
2023-05-25T10:27:41.073Z,91.46
2023-05-25T10:30:09.956Z,89.65
2023-05-25T10:32:41.269Z,88.96
2023-05-25T10:35:10.584Z,88.18
2023-05-25T10:37:38.905Z,88.18
2023-05-25T10:40:08.786Z,89.57
2023-05-25T10:42:37.396Z,88.90
2023-05-25T10:45:10.092Z,88.87
2023-05-25T10:47:39.374Z,88.81
2023-05-25T10:50:07.021Z,88.63
2023-05-25T10:52:34.978Z,88.33
2023-05-25T10:55:04.530Z,87.85
2023-05-25T10:57:31.815Z,88.33
2023-05-25T11:00:09.117Z,88.16
2023-05-25T11:02:56.145Z,89.73
2023-05-25T11:05:35.487Z,87.47
2023-05-25T11:08:08.733Z,89.56
2023-05-25T11:10:38.842Z,88.17
2023-05-25T11:13:37.845Z,89.46
2023-05-25T11:16:27.757Z,86.81
2023-05-25T11:19:01.176Z,86.61
2023-05-25T11:21:28.174Z,86.21
2023-05-25T11:24:14.763Z,86.40
2023-05-25T11:26:56.512Z,86.67
2023-05-25T11:29:25.722Z,86.15
2023-05-25T11:31:56.840Z,84.16
2023-05-25T11:34:26.312Z,84.22
2023-05-25T11:37:06.673Z,84.57
2023-05-25T11:39:33.692Z,85.32
2023-05-25T11:42:05.560Z,86.43
2023-05-25T11:44:36.553Z,87.42
2023-05-25T11:47:09.009Z,88.62
2023-05-25T11:49:42.093Z,88.37
2023-05-25T11:52:09.814Z,88.43
2023-05-25T11:54:37.155Z,89.50
2023-05-25T11:57:04.944Z,87.82
2023-05-25T11:59:32.976Z,88.38
2023-05-25T12:02:04.555Z,88.04
2023-05-25T12:04:34.480Z,86.77
2023-05-25T12:07:05.504Z,85.61
2023-05-25T12:09:33.094Z,85.47
2023-05-25T12:12:01.108Z,86.14
2023-05-25T12:14:28.130Z,86.51
2023-05-25T12:16:56.098Z,85.93
2023-05-25T12:19:23.519Z,84.96
2023-05-25T12:21:51.999Z,84.95
2023-05-25T12:24:19.747Z,83.93
2023-05-25T12:26:59.869Z,83.01
2023-05-25T12:29:26.930Z,83.35
2023-05-25T12:31:54.218Z,83.34
2023-05-25T12:34:21.412Z,82.05
2023-05-25T12:36:53.392Z,82.16
2023-05-25T12:39:29.473Z,83.29
2023-05-25T12:42:00.647Z,84.31
2023-05-25T12:44:33.888Z,82.96
2023-05-25T12:47:21.034Z,81.73
2023-05-25T12:50:13.842Z,79.17
2023-05-25T12:52:46.689Z,78.89
2023-05-25T12:55:27.635Z,79.32
2023-05-25T12:57:59.149Z,79.19
2023-05-25T13:00:28.700Z,80.82
2023-05-25T13:02:55.821Z,80.43
2023-05-25T13:05:25.374Z,81.60
2023-05-25T13:07:54.474Z,83.22
2023-05-25T13:10:22.045Z,81.89
2023-05-25T13:12:51.207Z,82.34
2023-05-25T13:15:21.362Z,81.98
2023-05-25T13:17:50.708Z,82.92
2023-05-25T13:20:20.300Z,82.67
2023-05-25T13:22:48.784Z,82.69
2023-05-25T13:25:16.050Z,84.02
2023-05-25T13:27:45.155Z,82.51
2023-05-25T13:30:12.823Z,82.71
2023-05-25T13:32:40.538Z,84.19
2023-05-25T13:35:08.237Z,83.22
2023-05-25T13:37:35.234Z,83.13
2023-05-25T13:40:02.239Z,82.52
2023-05-25T13:42:29.348Z,82.82
2023-05-25T13:44:56.257Z,83.23
2023-05-25T13:47:23.348Z,84.46
2023-05-25T13:49:50.368Z,83.26
2023-05-25T13:52:17.434Z,83.77
2023-05-25T13:54:44.403Z,83.46
2023-05-25T13:57:11.313Z,84.53
2023-05-25T13:59:38.862Z,83.63
2023-05-25T14:02:06.027Z,83.77
2023-05-25T14:04:32.948Z,85.05
2023-05-25T14:07:00.234Z,84.83
2023-05-25T14:09:27.180Z,84.53
2023-05-25T14:11:54.503Z,86.18
2023-05-25T14:14:31.559Z,85.90
2023-05-25T14:17:00.599Z,87.03
2023-05-25T14:19:27.999Z,87.12
2023-05-25T14:24:24.731Z,87.10
2023-05-25T14:26:51.671Z,86.12
2023-05-25T14:29:18.623Z,86.16
2023-05-25T14:31:46.404Z,86.08
2023-05-25T14:34:13.328Z,86.83
2023-05-25T14:36:40.317Z,86.79
2023-05-25T14:39:07.230Z,86.70
2023-05-25T14:41:34.160Z,86.57
2023-05-25T14:44:01.257Z,88.39
2023-05-25T14:46:28.273Z,87.79
2023-05-25T14:48:55.215Z,87.97
2023-05-25T14:51:22.146Z,88.84
2023-05-25T14:53:49.180Z,87.69
2023-05-25T14:56:21.942Z,88.01
2023-05-25T14:58:48.923Z,87.89
2023-05-25T15:01:15.813Z,88.90
2023-05-25T15:03:42.846Z,88.46
2023-05-25T15:06:09.845Z,87.88
2023-05-25T15:08:37.451Z,88.30
2023-05-25T15:11:04.452Z,87.54
2023-05-25T15:13:31.358Z,88.02
2023-05-25T15:15:58.325Z,86.55
2023-05-25T15:18:25.679Z,86.90
2023-05-25T15:20:53.146Z,85.38
2023-05-25T15:23:20.183Z,86.43
2023-05-25T15:25:47.209Z,86.67
2023-05-25T15:28:14.138Z,87.24
2023-05-25T15:30:41.076Z,87.11
2023-05-25T15:33:08.160Z,87.33
2023-05-25T15:35:35.228Z,87.17
2023-05-25T15:38:02.173Z,87.18
2023-05-25T15:40:29.242Z,87.18
2023-05-25T15:42:56.460Z,86.07
2023-05-25T15:45:23.376Z,86.48
2023-05-25T15:47:50.810Z,87.04
2023-05-25T15:50:17.977Z,86.26
2023-05-25T15:52:44.878Z,86.34
2023-05-25T15:55:11.802Z,86.53
2023-05-25T15:57:38.751Z,85.83
2023-05-25T16:00:06.321Z,87.02
2023-05-25T16:02:33.430Z,86.91
2023-05-25T16:05:00.494Z,85.98
2023-05-25T16:07:27.472Z,87.17
2023-05-25T16:09:54.454Z,87.05
2023-05-25T16:12:24.820Z,86.31
2023-05-25T16:14:52.678Z,86.15
2023-05-25T16:17:20.060Z,86.01
2023-05-25T16:19:49.802Z,85.98
2023-05-25T16:22:16.798Z,85.38
2023-05-25T16:24:43.768Z,85.48
2023-05-25T16:27:10.744Z,85.04
2023-05-25T16:29:37.765Z,83.29
2023-05-25T16:32:05.040Z,84.75
2023-05-25T16:34:32.108Z,84.41
2023-05-25T16:36:59.088Z,84.32
2023-05-25T16:39:25.974Z,85.56
2023-05-25T16:41:52.979Z,84.83
2023-05-25T16:44:20.020Z,86.24
2023-05-25T16:46:47.049Z,85.64
2023-05-25T16:49:14.046Z,85.83
2023-05-25T16:51:40.995Z,86.49
2023-05-25T16:54:08.491Z,85.50
2023-05-25T16:56:36.130Z,86.50
2023-05-25T16:59:03.124Z,86.28
2023-05-25T17:01:30.122Z,87.08
2023-05-25T17:03:57.178Z,86.79
2023-05-25T17:06:24.272Z,86.55
2023-05-25T17:08:51.164Z,86.04
2023-05-25T17:11:18.185Z,86.31
2023-05-25T17:13:45.113Z,86.33
2023-05-25T17:16:12.118Z,87.35
2023-05-25T17:18:39.123Z,86.57
2023-05-25T17:21:06.186Z,86.35
2023-05-25T17:23:33.098Z,87.32
2023-05-25T17:26:00.059Z,86.55
2023-05-25T17:28:28.983Z,87.12
2023-05-25T17:30:56.693Z,87.21
2023-05-25T17:33:23.732Z,86.41
2023-05-25T17:35:50.848Z,86.09
2023-05-25T17:38:17.856Z,86.24
2023-05-25T17:40:44.856Z,86.10
2023-05-25T17:43:11.800Z,86.93
2023-05-25T17:45:38.850Z,88.07
2023-05-25T17:48:06.011Z,87.78
2023-05-25T17:50:33.048Z,86.89
2023-05-25T17:53:00.038Z,87.13
2023-05-25T17:55:27.273Z,86.92
2023-05-25T17:57:54.178Z,86.91
2023-05-25T18:00:23.347Z,87.03
2023-05-25T18:02:50.325Z,87.23
2023-05-25T18:05:17.352Z,86.68
2023-05-25T18:07:44.304Z,87.09
2023-05-25T18:10:11.411Z,87.21
2023-05-25T18:12:38.334Z,87.45
2023-05-25T18:15:05.677Z,87.29
2023-05-25T18:17:32.624Z,87.60
2023-05-25T18:19:59.551Z,87.33
2023-05-25T18:22:26.551Z,87.42
2023-05-25T18:24:53.483Z,87.96
2023-05-25T18:27:21.828Z,87.93
2023-05-25T18:29:48.847Z,88.45
2023-05-25T18:32:15.978Z,89.07
2023-05-25T18:34:45.179Z,88.81
2023-05-25T18:37:12.135Z,88.82
2023-05-25T18:39:39.095Z,90.07
2023-05-25T18:42:06.724Z,89.64
2023-05-25T18:44:33.785Z,89.26
2023-05-25T18:47:00.879Z,89.55
2023-05-25T18:49:32.980Z,89.69
2023-05-25T18:52:00.110Z,89.62
2023-05-25T18:54:27.747Z,89.81
2023-05-25T18:56:54.644Z,90.02
2023-05-25T18:59:21.688Z,90.25
2023-05-25T19:01:48.705Z,90.30
2023-05-25T19:04:16.062Z,90.60
2023-05-25T19:06:43.077Z,90.57
2023-05-25T19:09:09.983Z,91.11
2023-05-25T19:11:36.945Z,92.05
2023-05-25T19:14:03.909Z,91.76
2023-05-25T19:16:30.869Z,91.56
2023-05-25T19:18:57.817Z,92.25
2023-05-25T19:21:24.803Z,92.01
2023-05-25T19:23:51.942Z,92.10
2023-05-25T19:26:19.077Z,93.29
2023-05-25T19:28:46.022Z,93.54
2023-05-25T19:31:12.985Z,93.92
2023-05-25T19:33:40.014Z,94.29
2023-05-25T19:36:06.992Z,95.00
2023-05-25T19:38:41.111Z,94.94
2023-05-25T19:41:09.076Z,95.70
2023-05-25T19:43:36.337Z,95.06
2023-05-25T19:46:04.050Z,96.08
2023-05-25T19:48:31.336Z,96.18
2023-05-25T19:50:58.282Z,96.15
2023-05-25T19:53:25.204Z,96.97
2023-05-25T19:55:52.169Z,98.13
2023-05-25T19:58:19.136Z,99.19
2023-05-25T20:00:46.281Z,100.00
2023-05-25T20:03:16.265Z,99.56
2023-05-25T20:05:44.576Z,99.22
2023-05-25T20:08:11.738Z,99.14
2023-05-25T20:10:39.838Z,99.00
2023-05-25T20:13:07.682Z,99.82
2023-05-25T20:15:35.126Z,99.52
2023-05-25T20:18:02.943Z,100.00
2023-05-25T20:20:30.038Z,100.00
2023-05-25T20:22:57.034Z,100.00
2023-05-25T20:25:23.991Z,100.00
2023-05-25T20:27:50.951Z,100.00
2023-05-25T20:30:18.010Z,100.00
2023-05-25T20:32:45.048Z,100.00
2023-05-25T20:35:13.543Z,100.00
2023-05-25T20:37:40.545Z,100.00
2023-05-25T20:40:07.945Z,100.00
2023-05-25T20:42:35.384Z,100.00
2023-05-25T20:45:02.596Z,100.00
2023-05-25T20:47:29.591Z,100.00
2023-05-25T20:49:56.720Z,100.00
2023-05-25T20:52:24.410Z,100.00
2023-05-25T20:54:51.468Z,100.00
2023-05-25T20:57:18.478Z,100.00
2023-05-25T20:59:45.604Z,100.00
2023-05-25T21:02:12.548Z,100.00
2023-05-25T21:04:39.461Z,100.00
2023-05-25T21:07:06.681Z,100.00
2023-05-25T21:09:33.598Z,100.00
2023-05-25T21:12:01.968Z,100.00
2023-05-25T21:14:29.968Z,100.00
2023-05-25T21:16:56.928Z,100.00
2023-05-25T21:19:24.664Z,100.00
2023-05-25T21:21:51.988Z,100.00
2023-05-25T21:24:18.921Z,100.00
2023-05-25T21:26:45.847Z,100.00
2023-05-25T21:29:12.835Z,100.00
2023-05-25T21:31:39.848Z,100.00
2023-05-25T21:34:07.315Z,100.00
2023-05-25T21:36:34.340Z,100.00
2023-05-25T21:39:01.259Z,100.00
2023-05-25T21:41:28.591Z,100.00
2023-05-25T21:43:55.846Z,100.00
2023-05-25T21:46:22.644Z,100.00
2023-05-25T21:48:49.474Z,100.00
2023-05-25T21:51:17.195Z,100.00
2023-05-25T21:53:43.984Z,100.00
2023-05-25T21:56:10.828Z,100.00
2023-05-25T21:58:37.808Z,100.00
2023-05-25T22:01:04.871Z,100.00
2023-05-25T22:03:31.869Z,100.00
2023-05-25T22:05:58.814Z,100.00
2023-05-25T22:08:25.732Z,100.00
2023-05-25T22:10:52.555Z,100.00
2023-05-25T22:13:19.405Z,100.00
2023-05-25T22:15:46.653Z,100.00
2023-05-25T22:18:13.841Z,100.00
2023-05-25T22:20:42.328Z,100.00
2023-05-25T22:23:12.297Z,100.00
2023-05-25T22:25:39.126Z,100.00
2023-05-25T22:28:06.172Z,100.00
2023-05-25T22:30:33.200Z,100.00
2023-05-25T22:33:00.174Z,100.00
2023-05-25T22:35:27.038Z,100.00
2023-05-25T22:37:53.887Z,100.00
2023-05-25T22:40:20.739Z,100.00
2023-05-25T22:42:50.453Z,100.00
2023-05-25T22:45:18.139Z,100.00
2023-05-25T22:47:45.084Z,100.00
2023-05-25T22:50:12.853Z,100.00
2023-05-25T22:52:41.626Z,100.00
2023-05-25T22:55:09.878Z,100.00
2023-05-25T22:57:37.321Z,100.00
2023-05-25T23:00:05.251Z,100.00
2023-05-25T23:02:32.349Z,100.00
2023-05-25T23:04:59.375Z,100.00
2023-05-25T23:07:26.357Z,100.00
2023-05-25T23:09:53.192Z,100.00
2023-05-25T23:12:20.042Z,100.00
2023-05-25T23:14:46.872Z,100.00
2023-05-25T23:17:13.884Z,100.00
2023-05-25T23:19:40.747Z,100.00
2023-05-25T23:22:07.586Z,100.00
2023-05-25T23:24:34.482Z,100.00
2023-05-25T23:27:01.995Z,100.00
2023-05-25T23:29:29.127Z,100.00
2023-05-25T23:31:56.035Z,100.00
2023-05-25T23:34:23.093Z,100.00
2023-05-25T23:36:49.968Z,100.00
2023-05-25T23:39:16.793Z,100.00
2023-05-25T23:41:43.605Z,100.00
2023-05-25T23:44:10.590Z,100.00
2023-05-25T23:46:37.446Z,100.00
2023-05-25T23:49:04.360Z,100.00
2023-05-25T23:51:32.290Z,100.00
2023-05-25T23:53:59.114Z,100.00
2023-05-25T23:56:27.986Z,100.00
2023-05-25T23:58:55.096Z,100.00
